sensor_id;sensor_type;location;lat;lon;timestamp;P1;durP1;ratioP1;P2;durP2;ratioP2
14276;SDS011;7222;57.346;12.150;2023-07-29T00:01:36;4.13;;;2.60;;
14276;SDS011;7222;57.346;12.150;2023-07-29T00:04:05;2.60;;;2.30;;
14276;SDS011;7222;57.346;12.150;2023-07-29T00:06:34;2.63;;;2.43;;
14276;SDS011;7222;57.346;12.150;2023-07-29T00:09:01;3.73;;;2.40;;
14276;SDS011;7222;57.346;12.150;2023-07-29T00:11:29;3.13;;;2.53;;
14276;SDS011;7222;57.346;12.150;2023-07-29T00:13:57;3.07;;;2.50;;
14276;SDS011;7222;57.346;12.150;2023-07-29T00:16:24;3.27;;;2.57;;
14276;SDS011;7222;57.346;12.150;2023-07-29T00:18:51;3.23;;;2.30;;
14276;SDS011;7222;57.346;12.150;2023-07-29T00:21:18;3.87;;;2.73;;
14276;SDS011;7222;57.346;12.150;2023-07-29T00:23:46;5.20;;;2.53;;
14276;SDS011;7222;57.346;12.150;2023-07-29T00:26:13;2.53;;;2.23;;
14276;SDS011;7222;57.346;12.150;2023-07-29T00:28:40;2.80;;;2.60;;
14276;SDS011;7222;57.346;12.150;2023-07-29T00:31:07;2.60;;;2.40;;
14276;SDS011;7222;57.346;12.150;2023-07-29T00:33:34;3.03;;;2.67;;
14276;SDS011;7222;57.346;12.150;2023-07-29T00:36:00;3.50;;;2.30;;
14276;SDS011;7222;57.346;12.150;2023-07-29T00:38:28;2.40;;;2.20;;
14276;SDS011;7222;57.346;12.150;2023-07-29T00:40:56;3.50;;;2.60;;
14276;SDS011;7222;57.346;12.150;2023-07-29T00:43:24;2.53;;;2.33;;
14276;SDS011;7222;57.346;12.150;2023-07-29T00:45:50;2.60;;;2.40;;
14276;SDS011;7222;57.346;12.150;2023-07-29T00:48:18;2.80;;;2.60;;
14276;SDS011;7222;57.346;12.150;2023-07-29T00:50:45;2.53;;;2.33;;
14276;SDS011;7222;57.346;12.150;2023-07-29T00:53:12;2.83;;;2.63;;
14276;SDS011;7222;57.346;12.150;2023-07-29T00:55:39;2.70;;;2.50;;
14276;SDS011;7222;57.346;12.150;2023-07-29T00:58:08;3.10;;;2.80;;
14276;SDS011;7222;57.346;12.150;2023-07-29T01:00:35;2.77;;;2.50;;
14276;SDS011;7222;57.346;12.150;2023-07-29T01:03:03;2.90;;;2.47;;
14276;SDS011;7222;57.346;12.150;2023-07-29T01:05:32;2.80;;;2.57;;
14276;SDS011;7222;57.346;12.150;2023-07-29T01:08:09;3.40;;;2.90;;
14276;SDS011;7222;57.346;12.150;2023-07-29T01:10:43;2.67;;;2.47;;
14276;SDS011;7222;57.346;12.150;2023-07-29T01:13:19;2.93;;;2.50;;
14276;SDS011;7222;57.346;12.150;2023-07-29T01:15:52;2.90;;;2.70;;
14276;SDS011;7222;57.346;12.150;2023-07-29T01:18:22;3.03;;;2.73;;
14276;SDS011;7222;57.346;12.150;2023-07-29T01:20:51;3.07;;;2.60;;
14276;SDS011;7222;57.346;12.150;2023-07-29T01:23:25;4.13;;;2.60;;
14276;SDS011;7222;57.346;12.150;2023-07-29T01:25:52;2.67;;;2.47;;
14276;SDS011;7222;57.346;12.150;2023-07-29T01:28:19;2.83;;;2.57;;
14276;SDS011;7222;57.346;12.150;2023-07-29T01:30:46;2.90;;;2.30;;
14276;SDS011;7222;57.346;12.150;2023-07-29T01:33:16;2.90;;;2.63;;
14276;SDS011;7222;57.346;12.150;2023-07-29T01:35:50;4.07;;;2.67;;
14276;SDS011;7222;57.346;12.150;2023-07-29T01:38:23;2.57;;;2.37;;
14276;SDS011;7222;57.346;12.150;2023-07-29T01:40:56;3.00;;;2.60;;
14276;SDS011;7222;57.346;12.150;2023-07-29T01:43:24;3.53;;;3.20;;
14276;SDS011;7222;57.346;12.150;2023-07-29T01:45:51;4.07;;;2.40;;
14276;SDS011;7222;57.346;12.150;2023-07-29T01:48:18;3.03;;;2.73;;
14276;SDS011;7222;57.346;12.150;2023-07-29T01:50:45;5.10;;;2.73;;
14276;SDS011;7222;57.346;12.150;2023-07-29T01:53:12;2.97;;;2.40;;
14276;SDS011;7222;57.346;12.150;2023-07-29T01:55:41;2.70;;;2.50;;
14276;SDS011;7222;57.346;12.150;2023-07-29T01:58:09;2.97;;;2.63;;
14276;SDS011;7222;57.346;12.150;2023-07-29T02:00:36;2.77;;;2.43;;
14276;SDS011;7222;57.346;12.150;2023-07-29T02:03:04;2.67;;;2.40;;
14276;SDS011;7222;57.346;12.150;2023-07-29T02:05:31;2.80;;;2.50;;
14276;SDS011;7222;57.346;12.150;2023-07-29T02:07:58;2.97;;;2.60;;
14276;SDS011;7222;57.346;12.150;2023-07-29T02:10:25;3.03;;;2.40;;
14276;SDS011;7222;57.346;12.150;2023-07-29T02:12:53;3.30;;;3.10;;
14276;SDS011;7222;57.346;12.150;2023-07-29T02:15:20;4.73;;;3.33;;
14276;SDS011;7222;57.346;12.150;2023-07-29T02:17:47;3.27;;;2.83;;
14276;SDS011;7222;57.346;12.150;2023-07-29T02:20:16;2.47;;;2.20;;
14276;SDS011;7222;57.346;12.150;2023-07-29T02:22:43;2.87;;;2.57;;
14276;SDS011;7222;57.346;12.150;2023-07-29T02:25:10;3.77;;;2.93;;
14276;SDS011;7222;57.346;12.150;2023-07-29T02:27:37;4.90;;;2.77;;
14276;SDS011;7222;57.346;12.150;2023-07-29T02:30:06;3.43;;;2.63;;
14276;SDS011;7222;57.346;12.150;2023-07-29T02:32:34;3.20;;;2.90;;
14276;SDS011;7222;57.346;12.150;2023-07-29T02:35:01;3.50;;;2.90;;
14276;SDS011;7222;57.346;12.150;2023-07-29T02:37:29;3.07;;;2.77;;
14276;SDS011;7222;57.346;12.150;2023-07-29T02:39:57;2.90;;;2.60;;
14276;SDS011;7222;57.346;12.150;2023-07-29T02:42:24;3.27;;;2.87;;
14276;SDS011;7222;57.346;12.150;2023-07-29T02:44:51;3.37;;;3.07;;
14276;SDS011;7222;57.346;12.150;2023-07-29T02:47:19;5.97;;;4.07;;
14276;SDS011;7222;57.346;12.150;2023-07-29T02:49:46;6.33;;;3.57;;
14276;SDS011;7222;57.346;12.150;2023-07-29T02:52:13;3.40;;;3.10;;
14276;SDS011;7222;57.346;12.150;2023-07-29T02:54:40;4.47;;;2.97;;
14276;SDS011;7222;57.346;12.150;2023-07-29T02:57:06;4.93;;;3.47;;
14276;SDS011;7222;57.346;12.150;2023-07-29T02:59:33;4.13;;;3.37;;
14276;SDS011;7222;57.346;12.150;2023-07-29T03:02:00;3.70;;;3.30;;
14276;SDS011;7222;57.346;12.150;2023-07-29T03:04:30;5.10;;;3.37;;
14276;SDS011;7222;57.346;12.150;2023-07-29T03:06:57;3.70;;;2.90;;
14276;SDS011;7222;57.346;12.150;2023-07-29T03:09:24;3.27;;;2.97;;
14276;SDS011;7222;57.346;12.150;2023-07-29T03:11:51;3.37;;;3.07;;
14276;SDS011;7222;57.346;12.150;2023-07-29T03:14:19;4.90;;;4.30;;
14276;SDS011;7222;57.346;12.150;2023-07-29T03:16:46;5.73;;;4.30;;
14276;SDS011;7222;57.346;12.150;2023-07-29T03:19:13;3.33;;;3.03;;
14276;SDS011;7222;57.346;12.150;2023-07-29T03:21:42;4.17;;;3.30;;
14276;SDS011;7222;57.346;12.150;2023-07-29T03:24:09;4.93;;;2.73;;
14276;SDS011;7222;57.346;12.150;2023-07-29T03:26:36;3.40;;;3.10;;
14276;SDS011;7222;57.346;12.150;2023-07-29T03:29:03;5.07;;;3.80;;
14276;SDS011;7222;57.346;12.150;2023-07-29T03:31:30;3.93;;;3.47;;
14276;SDS011;7222;57.346;12.150;2023-07-29T03:33:57;3.87;;;3.47;;
14276;SDS011;7222;57.346;12.150;2023-07-29T03:36:24;4.60;;;3.90;;
14276;SDS011;7222;57.346;12.150;2023-07-29T03:38:53;3.97;;;3.50;;
14276;SDS011;7222;57.346;12.150;2023-07-29T03:41:20;4.83;;;4.30;;
14276;SDS011;7222;57.346;12.150;2023-07-29T03:43:47;5.47;;;4.70;;
14276;SDS011;7222;57.346;12.150;2023-07-29T03:46:13;6.83;;;5.23;;
14276;SDS011;7222;57.346;12.150;2023-07-29T03:48:44;7.57;;;5.20;;
14276;SDS011;7222;57.346;12.150;2023-07-29T03:51:11;6.17;;;5.20;;
14276;SDS011;7222;57.346;12.150;2023-07-29T03:53:38;8.57;;;6.60;;
14276;SDS011;7222;57.346;12.150;2023-07-29T03:56:07;7.07;;;5.80;;
14276;SDS011;7222;57.346;12.150;2023-07-29T03:58:34;8.43;;;6.70;;
14276;SDS011;7222;57.346;12.150;2023-07-29T04:01:01;7.00;;;5.40;;
14276;SDS011;7222;57.346;12.150;2023-07-29T04:03:29;6.10;;;5.00;;
14276;SDS011;7222;57.346;12.150;2023-07-29T04:05:56;10.97;;;6.77;;
14276;SDS011;7222;57.346;12.150;2023-07-29T04:08:23;6.60;;;4.80;;
14276;SDS011;7222;57.346;12.150;2023-07-29T04:10:50;8.13;;;6.67;;
14276;SDS011;7222;57.346;12.150;2023-07-29T04:13:18;9.60;;;6.50;;
14276;SDS011;7222;57.346;12.150;2023-07-29T04:15:45;7.10;;;5.30;;
14276;SDS011;7222;57.346;12.150;2023-07-29T04:18:12;7.37;;;4.87;;
14276;SDS011;7222;57.346;12.150;2023-07-29T04:20:39;9.73;;;5.50;;
14276;SDS011;7222;57.346;12.150;2023-07-29T04:23:06;7.10;;;6.33;;
14276;SDS011;7222;57.346;12.150;2023-07-29T04:25:33;8.70;;;5.83;;
14276;SDS011;7222;57.346;12.150;2023-07-29T04:28:00;9.20;;;6.07;;
14276;SDS011;7222;57.346;12.150;2023-07-29T04:30:29;8.37;;;5.87;;
14276;SDS011;7222;57.346;12.150;2023-07-29T04:32:56;8.07;;;6.30;;
14276;SDS011;7222;57.346;12.150;2023-07-29T04:35:23;7.33;;;6.43;;
14276;SDS011;7222;57.346;12.150;2023-07-29T04:37:50;9.10;;;6.37;;
14276;SDS011;7222;57.346;12.150;2023-07-29T04:40:18;8.87;;;7.13;;
14276;SDS011;7222;57.346;12.150;2023-07-29T04:42:45;12.00;;;8.50;;
14276;SDS011;7222;57.346;12.150;2023-07-29T04:45:12;10.80;;;8.00;;
14276;SDS011;7222;57.346;12.150;2023-07-29T04:47:40;10.67;;;8.70;;
14276;SDS011;7222;57.346;12.150;2023-07-29T04:50:07;10.47;;;7.80;;
14276;SDS011;7222;57.346;12.150;2023-07-29T04:52:35;10.80;;;8.60;;
14276;SDS011;7222;57.346;12.150;2023-07-29T04:55:02;8.70;;;7.20;;
14276;SDS011;7222;57.346;12.150;2023-07-29T04:57:29;9.53;;;6.83;;
14276;SDS011;7222;57.346;12.150;2023-07-29T04:59:56;10.30;;;7.87;;
14276;SDS011;7222;57.346;12.150;2023-07-29T05:02:23;11.60;;;7.20;;
14276;SDS011;7222;57.346;12.150;2023-07-29T05:04:52;10.73;;;8.13;;
14276;SDS011;7222;57.346;12.150;2023-07-29T05:07:19;10.57;;;8.50;;
14276;SDS011;7222;57.346;12.150;2023-07-29T05:09:46;10.30;;;7.80;;
14276;SDS011;7222;57.346;12.150;2023-07-29T05:12:14;10.20;;;7.80;;
14276;SDS011;7222;57.346;12.150;2023-07-29T05:14:41;10.83;;;8.67;;
14276;SDS011;7222;57.346;12.150;2023-07-29T05:17:08;10.40;;;7.67;;
14276;SDS011;7222;57.346;12.150;2023-07-29T05:19:35;10.57;;;8.63;;
14276;SDS011;7222;57.346;12.150;2023-07-29T05:22:04;8.80;;;7.50;;
14276;SDS011;7222;57.346;12.150;2023-07-29T05:24:31;9.83;;;7.27;;
14276;SDS011;7222;57.346;12.150;2023-07-29T05:26:58;10.13;;;7.03;;
14276;SDS011;7222;57.346;12.150;2023-07-29T05:29:25;11.17;;;7.07;;
14276;SDS011;7222;57.346;12.150;2023-07-29T05:31:52;8.47;;;7.07;;
14276;SDS011;7222;57.346;12.150;2023-07-29T05:34:19;8.53;;;6.27;;
14276;SDS011;7222;57.346;12.150;2023-07-29T05:36:46;7.00;;;5.87;;
14276;SDS011;7222;57.346;12.150;2023-07-29T05:39:14;7.07;;;6.30;;
14276;SDS011;7222;57.346;12.150;2023-07-29T05:41:41;7.70;;;6.30;;
14276;SDS011;7222;57.346;12.150;2023-07-29T05:44:08;6.70;;;5.43;;
14276;SDS011;7222;57.346;12.150;2023-07-29T05:46:35;8.40;;;5.63;;
14276;SDS011;7222;57.346;12.150;2023-07-29T05:49:02;6.67;;;5.37;;
14276;SDS011;7222;57.346;12.150;2023-07-29T05:51:29;5.83;;;4.67;;
14276;SDS011;7222;57.346;12.150;2023-07-29T05:53:56;5.80;;;4.43;;
14276;SDS011;7222;57.346;12.150;2023-07-29T05:56:25;5.30;;;4.40;;
14276;SDS011;7222;57.346;12.150;2023-07-29T05:58:52;6.33;;;4.73;;
14276;SDS011;7222;57.346;12.150;2023-07-29T06:01:19;7.13;;;4.50;;
14276;SDS011;7222;57.346;12.150;2023-07-29T06:03:46;7.63;;;4.50;;
14276;SDS011;7222;57.346;12.150;2023-07-29T06:06:14;3.97;;;3.63;;
14276;SDS011;7222;57.346;12.150;2023-07-29T06:08:41;4.57;;;3.50;;
14276;SDS011;7222;57.346;12.150;2023-07-29T06:11:08;4.17;;;3.83;;
14276;SDS011;7222;57.346;12.150;2023-07-29T06:13:37;3.77;;;3.20;;
14276;SDS011;7222;57.346;12.150;2023-07-29T06:16:04;5.20;;;3.57;;
14276;SDS011;7222;57.346;12.150;2023-07-29T06:18:31;4.03;;;3.50;;
14276;SDS011;7222;57.346;12.150;2023-07-29T06:20:58;3.67;;;3.37;;
14276;SDS011;7222;57.346;12.150;2023-07-29T06:23:25;5.80;;;3.33;;
14276;SDS011;7222;57.346;12.150;2023-07-29T06:25:52;3.13;;;2.93;;
14276;SDS011;7222;57.346;12.150;2023-07-29T06:28:20;3.67;;;2.90;;
14276;SDS011;7222;57.346;12.150;2023-07-29T06:30:49;3.27;;;2.90;;
14276;SDS011;7222;57.346;12.150;2023-07-29T06:33:16;3.93;;;3.00;;
14276;SDS011;7222;57.346;12.150;2023-07-29T06:35:43;5.00;;;3.50;;
14276;SDS011;7222;57.346;12.150;2023-07-29T06:38:10;3.97;;;3.53;;
14276;SDS011;7222;57.346;12.150;2023-07-29T06:40:37;3.13;;;2.83;;
14276;SDS011;7222;57.346;12.150;2023-07-29T06:43:04;4.43;;;3.50;;
14276;SDS011;7222;57.346;12.150;2023-07-29T06:45:31;3.37;;;3.07;;
14276;SDS011;7222;57.346;12.150;2023-07-29T06:48:00;5.80;;;3.60;;
14276;SDS011;7222;57.346;12.150;2023-07-29T06:50:27;4.93;;;3.00;;
14276;SDS011;7222;57.346;12.150;2023-07-29T06:52:55;3.90;;;3.40;;
14276;SDS011;7222;57.346;12.150;2023-07-29T06:55:22;3.90;;;3.53;;
14276;SDS011;7222;57.346;12.150;2023-07-29T06:57:49;3.37;;;2.90;;
14276;SDS011;7222;57.346;12.150;2023-07-29T07:00:16;4.17;;;3.20;;
14276;SDS011;7222;57.346;12.150;2023-07-29T07:02:43;4.43;;;3.40;;
14276;SDS011;7222;57.346;12.150;2023-07-29T07:05:12;4.37;;;3.43;;
14276;SDS011;7222;57.346;12.150;2023-07-29T07:07:40;4.57;;;3.30;;
14276;SDS011;7222;57.346;12.150;2023-07-29T07:10:07;3.00;;;2.73;;
14276;SDS011;7222;57.346;12.150;2023-07-29T07:12:35;4.87;;;3.30;;
14276;SDS011;7222;57.346;12.150;2023-07-29T07:15:03;3.40;;;3.10;;
14276;SDS011;7222;57.346;12.150;2023-07-29T07:17:30;4.73;;;3.20;;
14276;SDS011;7222;57.346;12.150;2023-07-29T07:19:57;3.63;;;3.10;;
14276;SDS011;7222;57.346;12.150;2023-07-29T07:22:26;3.33;;;3.03;;
14276;SDS011;7222;57.346;12.150;2023-07-29T07:24:53;5.60;;;3.20;;
14276;SDS011;7222;57.346;12.150;2023-07-29T07:27:20;3.50;;;3.20;;
14276;SDS011;7222;57.346;12.150;2023-07-29T07:29:48;3.93;;;3.53;;
14276;SDS011;7222;57.346;12.150;2023-07-29T07:32:15;5.57;;;3.30;;
14276;SDS011;7222;57.346;12.150;2023-07-29T07:34:42;3.70;;;3.40;;
14276;SDS011;7222;57.346;12.150;2023-07-29T07:37:09;5.07;;;3.27;;
14276;SDS011;7222;57.346;12.150;2023-07-29T07:39:38;4.10;;;2.73;;
14276;SDS011;7222;57.346;12.150;2023-07-29T07:42:05;4.50;;;3.03;;
14276;SDS011;7222;57.346;12.150;2023-07-29T07:44:32;4.10;;;3.40;;
14276;SDS011;7222;57.346;12.150;2023-07-29T07:46:59;4.50;;;3.00;;
14276;SDS011;7222;57.346;12.150;2023-07-29T07:49:27;4.20;;;3.60;;
14276;SDS011;7222;57.346;12.150;2023-07-29T07:51:55;5.30;;;3.40;;
14276;SDS011;7222;57.346;12.150;2023-07-29T07:54:22;5.13;;;3.60;;
14276;SDS011;7222;57.346;12.150;2023-07-29T07:56:51;3.20;;;2.87;;
14276;SDS011;7222;57.346;12.150;2023-07-29T07:59:19;3.40;;;3.10;;
14276;SDS011;7222;57.346;12.150;2023-07-29T08:01:46;4.23;;;3.37;;
14276;SDS011;7222;57.346;12.150;2023-07-29T08:04:13;4.07;;;3.23;;
14276;SDS011;7222;57.346;12.150;2023-07-29T08:06:41;3.40;;;3.10;;
14276;SDS011;7222;57.346;12.150;2023-07-29T08:09:09;6.50;;;3.57;;
14276;SDS011;7222;57.346;12.150;2023-07-29T08:11:36;8.37;;;3.67;;
14276;SDS011;7222;57.346;12.150;2023-07-29T08:14:04;4.00;;;3.40;;
14276;SDS011;7222;57.346;12.150;2023-07-29T08:16:31;3.73;;;3.00;;
14276;SDS011;7222;57.346;12.150;2023-07-29T08:18:58;4.40;;;3.83;;
14276;SDS011;7222;57.346;12.150;2023-07-29T08:21:26;4.40;;;3.70;;
14276;SDS011;7222;57.346;12.150;2023-07-29T08:23:53;4.87;;;3.40;;
14276;SDS011;7222;57.346;12.150;2023-07-29T08:26:20;3.10;;;2.80;;
14276;SDS011;7222;57.346;12.150;2023-07-29T08:28:47;3.37;;;2.97;;
14276;SDS011;7222;57.346;12.150;2023-07-29T08:31:16;5.30;;;3.87;;
14276;SDS011;7222;57.346;12.150;2023-07-29T08:33:44;4.70;;;3.63;;
14276;SDS011;7222;57.346;12.150;2023-07-29T08:36:11;5.60;;;3.87;;
14276;SDS011;7222;57.346;12.150;2023-07-29T08:38:38;4.37;;;3.87;;
14276;SDS011;7222;57.346;12.150;2023-07-29T08:41:07;4.97;;;3.93;;
14276;SDS011;7222;57.346;12.150;2023-07-29T08:43:41;6.30;;;4.30;;
14276;SDS011;7222;57.346;12.150;2023-07-29T08:46:14;5.10;;;3.97;;
14276;SDS011;7222;57.346;12.150;2023-07-29T08:48:43;5.33;;;3.93;;
14276;SDS011;7222;57.346;12.150;2023-07-29T08:51:10;5.43;;;4.70;;
14276;SDS011;7222;57.346;12.150;2023-07-29T08:53:38;6.63;;;4.30;;
14276;SDS011;7222;57.346;12.150;2023-07-29T08:56:06;5.40;;;4.30;;
14276;SDS011;7222;57.346;12.150;2023-07-29T08:58:33;6.90;;;4.83;;
14276;SDS011;7222;57.346;12.150;2023-07-29T09:01:02;7.27;;;5.23;;
14276;SDS011;7222;57.346;12.150;2023-07-29T09:03:30;6.60;;;5.80;;
14276;SDS011;7222;57.346;12.150;2023-07-29T09:05:58;8.20;;;5.07;;
14276;SDS011;7222;57.346;12.150;2023-07-29T09:08:26;7.97;;;5.43;;
14276;SDS011;7222;57.346;12.150;2023-07-29T09:10:53;8.47;;;5.73;;
14276;SDS011;7222;57.346;12.150;2023-07-29T09:13:20;6.10;;;5.50;;
14276;SDS011;7222;57.346;12.150;2023-07-29T09:15:47;9.30;;;5.07;;
14276;SDS011;7222;57.346;12.150;2023-07-29T09:18:15;7.10;;;5.10;;
14276;SDS011;7222;57.346;12.150;2023-07-29T09:20:45;8.77;;;5.30;;
14276;SDS011;7222;57.346;12.150;2023-07-29T09:23:12;6.40;;;4.73;;
14276;SDS011;7222;57.346;12.150;2023-07-29T09:25:40;6.10;;;5.30;;
14276;SDS011;7222;57.346;12.150;2023-07-29T09:28:08;7.93;;;4.33;;
14276;SDS011;7222;57.346;12.150;2023-07-29T09:30:36;7.53;;;5.10;;
14276;SDS011;7222;57.346;12.150;2023-07-29T09:33:04;6.53;;;4.70;;
14276;SDS011;7222;57.346;12.150;2023-07-29T09:35:32;7.47;;;5.80;;
14276;SDS011;7222;57.346;12.150;2023-07-29T09:38:01;7.27;;;5.33;;
14276;SDS011;7222;57.346;12.150;2023-07-29T09:40:34;6.17;;;5.20;;
14276;SDS011;7222;57.346;12.150;2023-07-29T09:43:02;7.67;;;5.77;;
14276;SDS011;7222;57.346;12.150;2023-07-29T09:45:32;7.20;;;5.33;;
14276;SDS011;7222;57.346;12.150;2023-07-29T09:48:00;6.67;;;5.17;;
14276;SDS011;7222;57.346;12.150;2023-07-29T09:50:30;7.57;;;5.10;;
14276;SDS011;7222;57.346;12.150;2023-07-29T09:52:57;6.87;;;5.37;;
14276;SDS011;7222;57.346;12.150;2023-07-29T09:55:26;6.93;;;5.10;;
14276;SDS011;7222;57.346;12.150;2023-07-29T09:57:53;6.03;;;4.77;;
14276;SDS011;7222;57.346;12.150;2023-07-29T10:00:22;5.93;;;4.57;;
14276;SDS011;7222;57.346;12.150;2023-07-29T10:02:50;6.43;;;5.00;;
14276;SDS011;7222;57.346;12.150;2023-07-29T10:05:18;5.13;;;4.63;;
14276;SDS011;7222;57.346;12.150;2023-07-29T10:07:46;5.10;;;4.60;;
14276;SDS011;7222;57.346;12.150;2023-07-29T10:10:14;6.60;;;5.20;;
14276;SDS011;7222;57.346;12.150;2023-07-29T10:12:44;5.53;;;5.03;;
14276;SDS011;7222;57.346;12.150;2023-07-29T10:15:12;7.47;;;5.80;;
14276;SDS011;7222;57.346;12.150;2023-07-29T10:17:40;5.30;;;4.80;;
14276;SDS011;7222;57.346;12.150;2023-07-29T10:20:07;6.97;;;5.30;;
14276;SDS011;7222;57.346;12.150;2023-07-29T10:22:36;7.90;;;5.43;;
14276;SDS011;7222;57.346;12.150;2023-07-29T10:25:04;9.00;;;5.17;;
14276;SDS011;7222;57.346;12.150;2023-07-29T10:27:35;5.70;;;4.67;;
14276;SDS011;7222;57.346;12.150;2023-07-29T10:30:11;5.53;;;4.87;;
14276;SDS011;7222;57.346;12.150;2023-07-29T10:32:41;5.70;;;4.40;;
14276;SDS011;7222;57.346;12.150;2023-07-29T10:35:09;4.97;;;4.47;;
14276;SDS011;7222;57.346;12.150;2023-07-29T10:37:37;4.77;;;4.20;;
14276;SDS011;7222;57.346;12.150;2023-07-29T10:40:06;5.37;;;4.30;;
14276;SDS011;7222;57.346;12.150;2023-07-29T10:42:34;5.80;;;4.70;;
14276;SDS011;7222;57.346;12.150;2023-07-29T10:47:55;5.43;;;4.17;;
14276;SDS011;7222;57.346;12.150;2023-07-29T10:50:22;5.43;;;3.97;;
14276;SDS011;7222;57.346;12.150;2023-07-29T10:52:50;4.90;;;4.40;;
14276;SDS011;7222;57.346;12.150;2023-07-29T10:55:25;7.23;;;4.53;;
14276;SDS011;7222;57.346;12.150;2023-07-29T10:57:52;7.07;;;5.03;;
14276;SDS011;7222;57.346;12.150;2023-07-29T11:00:38;5.13;;;4.63;;
14276;SDS011;7222;57.346;12.150;2023-07-29T11:03:08;5.77;;;4.63;;
14276;SDS011;7222;57.346;12.150;2023-07-29T11:05:42;5.10;;;4.60;;
14276;SDS011;7222;57.346;12.150;2023-07-29T11:08:15;4.73;;;4.33;;
14276;SDS011;7222;57.346;12.150;2023-07-29T11:10:44;4.50;;;4.10;;
14276;SDS011;7222;57.346;12.150;2023-07-29T11:13:23;5.40;;;4.90;;
14276;SDS011;7222;57.346;12.150;2023-07-29T11:15:53;5.20;;;4.23;;
14276;SDS011;7222;57.346;12.150;2023-07-29T11:18:25;5.07;;;4.50;;
14276;SDS011;7222;57.346;12.150;2023-07-29T11:20:54;4.33;;;3.83;;
14276;SDS011;7222;57.346;12.150;2023-07-29T11:23:26;3.83;;;3.43;;
14276;SDS011;7222;57.346;12.150;2023-07-29T11:25:55;5.47;;;3.57;;
14276;SDS011;7222;57.346;12.150;2023-07-29T11:28:23;3.83;;;3.50;;
14276;SDS011;7222;57.346;12.150;2023-07-29T11:30:50;4.40;;;4.00;;
14276;SDS011;7222;57.346;12.150;2023-07-29T11:33:19;3.50;;;3.23;;
14276;SDS011;7222;57.346;12.150;2023-07-29T11:35:48;3.97;;;3.50;;
14276;SDS011;7222;57.346;12.150;2023-07-29T11:38:15;3.57;;;3.37;;
14276;SDS011;7222;57.346;12.150;2023-07-29T11:40:43;3.27;;;3.00;;
14276;SDS011;7222;57.346;12.150;2023-07-29T11:43:19;3.50;;;3.20;;
14276;SDS011;7222;57.346;12.150;2023-07-29T11:45:46;3.50;;;3.20;;
14276;SDS011;7222;57.346;12.150;2023-07-29T11:48:13;2.70;;;2.50;;
14276;SDS011;7222;57.346;12.150;2023-07-29T11:50:40;2.80;;;2.60;;
14276;SDS011;7222;57.346;12.150;2023-07-29T11:53:08;3.00;;;2.80;;
14276;SDS011;7222;57.346;12.150;2023-07-29T11:55:37;2.67;;;2.47;;
14276;SDS011;7222;57.346;12.150;2023-07-29T11:58:04;2.97;;;2.67;;
14276;SDS011;7222;57.346;12.150;2023-07-29T12:00:31;3.40;;;2.63;;
14276;SDS011;7222;57.346;12.150;2023-07-29T12:02:58;2.97;;;2.67;;
14276;SDS011;7222;57.346;12.150;2023-07-29T12:05:25;2.60;;;2.40;;
14276;SDS011;7222;57.346;12.150;2023-07-29T12:07:53;2.83;;;2.63;;
14276;SDS011;7222;57.346;12.150;2023-07-29T12:10:22;2.80;;;2.60;;
14276;SDS011;7222;57.346;12.150;2023-07-29T12:12:49;2.30;;;2.20;;
14276;SDS011;7222;57.346;12.150;2023-07-29T12:15:23;2.57;;;2.20;;
14276;SDS011;7222;57.346;12.150;2023-07-29T12:17:54;2.37;;;2.20;;
14276;SDS011;7222;57.346;12.150;2023-07-29T12:20:22;2.37;;;2.17;;
14276;SDS011;7222;57.346;12.150;2023-07-29T12:22:53;2.93;;;2.20;;
14276;SDS011;7222;57.346;12.150;2023-07-29T12:25:22;2.53;;;2.30;;
14276;SDS011;7222;57.346;12.150;2023-07-29T12:27:49;2.70;;;2.50;;
14276;SDS011;7222;57.346;12.150;2023-07-29T12:30:16;2.40;;;2.20;;
14276;SDS011;7222;57.346;12.150;2023-07-29T12:32:47;2.37;;;2.00;;
14276;SDS011;7222;57.346;12.150;2023-07-29T12:35:14;2.20;;;2.00;;
14276;SDS011;7222;57.346;12.150;2023-07-29T12:37:41;2.20;;;2.00;;
14276;SDS011;7222;57.346;12.150;2023-07-29T12:40:19;1.93;;;1.80;;
14276;SDS011;7222;57.346;12.150;2023-07-29T12:42:49;2.10;;;1.90;;
14276;SDS011;7222;57.346;12.150;2023-07-29T12:45:16;2.27;;;2.17;;
14276;SDS011;7222;57.346;12.150;2023-07-29T12:47:43;2.00;;;1.90;;
14276;SDS011;7222;57.346;12.150;2023-07-29T12:50:10;2.70;;;2.50;;
14276;SDS011;7222;57.346;12.150;2023-07-29T12:52:38;3.40;;;2.90;;
14276;SDS011;7222;57.346;12.150;2023-07-29T12:55:05;2.00;;;1.90;;
14276;SDS011;7222;57.346;12.150;2023-07-29T12:57:35;2.07;;;1.97;;
14276;SDS011;7222;57.346;12.150;2023-07-29T13:00:02;2.70;;;2.50;;
14276;SDS011;7222;57.346;12.150;2023-07-29T13:02:29;2.70;;;2.47;;
14276;SDS011;7222;57.346;12.150;2023-07-29T13:04:57;2.30;;;2.20;;
14276;SDS011;7222;57.346;12.150;2023-07-29T13:07:24;2.00;;;1.90;;
14276;SDS011;7222;57.346;12.150;2023-07-29T13:09:51;2.50;;;2.27;;
14276;SDS011;7222;57.346;12.150;2023-07-29T13:12:18;2.20;;;2.03;;
14276;SDS011;7222;57.346;12.150;2023-07-29T13:14:46;2.20;;;2.10;;
14276;SDS011;7222;57.346;12.150;2023-07-29T13:17:13;2.10;;;1.90;;
14276;SDS011;7222;57.346;12.150;2023-07-29T13:19:40;2.20;;;2.10;;
14276;SDS011;7222;57.346;12.150;2023-07-29T13:22:07;2.43;;;2.00;;
14276;SDS011;7222;57.346;12.150;2023-07-29T13:24:34;2.30;;;2.10;;
14276;SDS011;7222;57.346;12.150;2023-07-29T13:27:00;2.73;;;2.47;;
14276;SDS011;7222;57.346;12.150;2023-07-29T13:29:27;2.10;;;2.00;;
14276;SDS011;7222;57.346;12.150;2023-07-29T13:31:56;1.80;;;1.70;;
14276;SDS011;7222;57.346;12.150;2023-07-29T13:34:23;1.90;;;1.80;;
14276;SDS011;7222;57.346;12.150;2023-07-29T13:36:50;1.80;;;1.70;;
14276;SDS011;7222;57.346;12.150;2023-07-29T13:39:16;2.00;;;1.90;;
14276;SDS011;7222;57.346;12.150;2023-07-29T13:41:43;2.10;;;2.00;;
14276;SDS011;7222;57.346;12.150;2023-07-29T13:44:11;2.07;;;1.97;;
14276;SDS011;7222;57.346;12.150;2023-07-29T13:46:37;2.07;;;1.97;;
14276;SDS011;7222;57.346;12.150;2023-07-29T13:49:06;1.93;;;1.80;;
14276;SDS011;7222;57.346;12.150;2023-07-29T13:51:32;1.90;;;1.80;;
14276;SDS011;7222;57.346;12.150;2023-07-29T13:53:59;1.93;;;1.83;;
14276;SDS011;7222;57.346;12.150;2023-07-29T13:56:26;2.00;;;1.90;;
14276;SDS011;7222;57.346;12.150;2023-07-29T13:58:53;1.80;;;1.70;;
14276;SDS011;7222;57.346;12.150;2023-07-29T14:01:20;4.10;;;2.80;;
14276;SDS011;7222;57.346;12.150;2023-07-29T14:03:47;9.30;;;2.53;;
14276;SDS011;7222;57.346;12.150;2023-07-29T14:06:17;7.83;;;3.00;;
14276;SDS011;7222;57.346;12.150;2023-07-29T14:08:43;7.77;;;2.57;;
14276;SDS011;7222;57.346;12.150;2023-07-29T14:11:10;8.93;;;3.00;;
14276;SDS011;7222;57.346;12.150;2023-07-29T14:13:37;3.80;;;2.37;;
14276;SDS011;7222;57.346;12.150;2023-07-29T14:16:04;8.70;;;3.37;;
14276;SDS011;7222;57.346;12.150;2023-07-29T14:18:31;3.50;;;2.07;;
14276;SDS011;7222;57.346;12.150;2023-07-29T14:20:58;4.70;;;2.47;;
14276;SDS011;7222;57.346;12.150;2023-07-29T14:23:26;13.17;;;3.13;;
14276;SDS011;7222;57.346;12.150;2023-07-29T14:25:53;12.93;;;4.10;;
14276;SDS011;7222;57.346;12.150;2023-07-29T14:28:20;3.57;;;2.30;;
14276;SDS011;7222;57.346;12.150;2023-07-29T14:30:47;4.37;;;2.10;;
14276;SDS011;7222;57.346;12.150;2023-07-29T14:33:14;2.13;;;2.00;;
14276;SDS011;7222;57.346;12.150;2023-07-29T14:35:40;2.27;;;1.80;;
14276;SDS011;7222;57.346;12.150;2023-07-29T14:38:07;2.20;;;2.00;;
14276;SDS011;7222;57.346;12.150;2023-07-29T14:40:35;2.33;;;2.23;;
14276;SDS011;7222;57.346;12.150;2023-07-29T14:43:02;11.03;;;3.50;;
14276;SDS011;7222;57.346;12.150;2023-07-29T14:45:29;4.23;;;2.23;;
14276;SDS011;7222;57.346;12.150;2023-07-29T14:47:56;2.10;;;2.00;;
14276;SDS011;7222;57.346;12.150;2023-07-29T14:50:23;2.30;;;2.10;;
14276;SDS011;7222;57.346;12.150;2023-07-29T14:52:49;4.03;;;2.13;;
14276;SDS011;7222;57.346;12.150;2023-07-29T14:55:16;36.10;;;7.53;;